createdAt,value
2023-04-18T00:01:13.175Z,8.30
2023-04-18T00:03:40.893Z,8.28
2023-04-18T00:06:08.576Z,8.26
2023-04-18T00:08:35.957Z,8.22
2023-04-18T00:11:03.548Z,8.41
2023-04-18T00:13:30.921Z,8.18
2023-04-18T00:15:58.451Z,8.16
2023-04-18T00:18:27.462Z,8.20
2023-04-18T00:20:55.072Z,8.07
2023-04-18T00:23:22.570Z,8.05
2023-04-18T00:25:50.089Z,8.12
2023-04-18T00:28:17.423Z,8.15
2023-04-18T00:30:46.161Z,8.13
2023-04-18T00:33:13.427Z,8.13
2023-04-18T00:35:41.054Z,8.13
2023-04-18T00:38:08.574Z,8.18
2023-04-18T00:40:36.613Z,8.11
2023-04-18T00:43:03.932Z,8.04
2023-04-18T00:45:31.403Z,7.94
2023-04-18T00:47:58.802Z,8.01
2023-04-18T00:50:26.754Z,7.99
2023-04-18T00:52:54.106Z,7.94
2023-04-18T00:55:22.202Z,7.80
2023-04-18T00:57:49.926Z,7.80
2023-04-18T01:00:17.593Z,7.71
2023-04-18T01:02:45.130Z,7.74
2023-04-18T01:05:12.682Z,7.84
2023-04-18T01:07:41.929Z,7.88
2023-04-18T01:10:11.113Z,7.96
2023-04-18T01:12:38.879Z,7.80
2023-04-18T01:15:06.905Z,7.70
2023-04-18T01:17:36.427Z,7.67
2023-04-18T01:20:06.505Z,7.70
2023-04-18T01:22:34.252Z,7.61
2023-04-18T01:25:07.305Z,7.49
2023-04-18T01:27:34.711Z,7.42
2023-04-18T01:30:02.379Z,7.65
2023-04-18T01:32:30.636Z,7.68
2023-04-18T01:34:58.193Z,7.75
2023-04-18T01:37:25.592Z,7.57
2023-04-18T01:39:54.137Z,7.45
2023-04-18T01:42:21.579Z,7.54
2023-04-18T01:44:49.097Z,7.50
2023-04-18T01:47:16.258Z,7.48
2023-04-18T01:49:48.316Z,7.73
2023-04-18T01:52:16.353Z,7.66
2023-04-18T01:54:43.607Z,7.80
2023-04-18T01:57:10.962Z,7.75
2023-04-18T01:59:38.579Z,7.74
2023-04-18T02:02:06.230Z,7.61
2023-04-18T02:04:33.594Z,7.61
2023-04-18T02:07:01.187Z,7.58
2023-04-18T02:09:28.755Z,7.45
2023-04-18T02:11:59.588Z,7.49
2023-04-18T02:14:27.617Z,7.58
2023-04-18T02:16:55.022Z,7.61
2023-04-18T02:19:22.675Z,7.53
2023-04-18T02:21:50.953Z,7.55
2023-04-18T02:24:19.105Z,7.47
2023-04-18T02:26:47.303Z,7.45
2023-04-18T02:29:14.716Z,7.32
2023-04-18T02:31:42.613Z,7.26
2023-04-18T02:34:10.117Z,7.17
2023-04-18T02:36:37.434Z,7.20
2023-04-18T02:39:05.075Z,7.10
2023-04-18T02:41:32.555Z,7.08
2023-04-18T02:44:00.224Z,7.19
2023-04-18T02:46:28.141Z,7.18
2023-04-18T02:48:55.734Z,7.03
2023-04-18T02:51:25.111Z,7.17
2023-04-18T02:53:55.359Z,6.98
2023-04-18T02:56:24.359Z,6.94
2023-04-18T02:59:16.107Z,7.06
2023-04-18T03:01:55.660Z,7.01
2023-04-18T03:04:24.103Z,6.89
2023-04-18T03:07:00.733Z,6.88
2023-04-18T03:09:31.331Z,6.92
2023-04-18T03:12:04.933Z,6.95
2023-04-18T03:14:33.013Z,6.96
2023-04-18T03:17:00.229Z,7.01
2023-04-18T03:19:33.368Z,6.93
2023-04-18T03:22:06.586Z,6.87
2023-04-18T03:24:36.621Z,6.89
2023-04-18T03:27:06.741Z,6.89
2023-04-18T03:29:34.789Z,6.86
2023-04-18T03:32:02.469Z,6.88
2023-04-18T03:34:30.034Z,6.70
2023-04-18T03:36:57.650Z,6.65
2023-04-18T03:39:26.081Z,6.67
2023-04-18T03:41:54.606Z,6.62
2023-04-18T03:44:22.313Z,6.60
2023-04-18T03:46:49.785Z,6.66
2023-04-18T03:49:17.919Z,6.61
2023-04-18T03:51:50.506Z,6.50
2023-04-18T03:54:19.090Z,6.51
2023-04-18T03:56:46.498Z,6.42
2023-04-18T03:59:14.552Z,6.36
2023-04-18T04:01:46.019Z,6.34
2023-04-18T04:04:15.755Z,6.46
2023-04-18T04:06:43.535Z,6.44
2023-04-18T04:09:10.835Z,6.57
2023-04-18T04:11:39.941Z,6.62
2023-04-18T04:14:10.196Z,6.66
2023-04-18T04:16:42.112Z,6.65
2023-04-18T04:19:11.754Z,6.63
2023-04-18T04:21:45.714Z,6.52
2023-04-18T04:24:15.599Z,6.40
2023-04-18T04:26:46.865Z,6.35
2023-04-18T04:29:19.285Z,6.36
2023-04-18T04:31:48.197Z,6.47
2023-04-18T04:34:23.432Z,6.58
2023-04-18T04:36:51.413Z,6.57
2023-04-18T04:39:19.038Z,6.58
2023-04-18T04:42:04.814Z,6.60
2023-04-18T04:44:44.450Z,6.63
2023-04-18T04:47:12.348Z,6.65
2023-04-18T04:49:40.132Z,6.66
2023-04-18T04:52:07.476Z,6.64
2023-04-18T04:54:35.684Z,6.61
2023-04-18T04:57:05.817Z,6.62
2023-04-18T04:59:33.415Z,6.63
2023-04-18T05:02:01.196Z,6.66
2023-04-18T05:04:28.860Z,6.67
2023-04-18T05:06:57.110Z,6.66
2023-04-18T05:09:24.791Z,6.68
2023-04-18T05:11:52.060Z,6.64
2023-04-18T05:14:21.026Z,6.64
2023-04-18T05:16:48.463Z,6.64
2023-04-18T05:19:15.857Z,6.63
2023-04-18T05:21:43.374Z,6.62
2023-04-18T05:24:10.836Z,6.59
2023-04-18T05:26:38.736Z,6.57
2023-04-18T05:29:06.055Z,6.56
2023-04-18T05:31:33.656Z,6.57
2023-04-18T05:34:00.948Z,6.55
2023-04-18T05:36:28.982Z,6.57
2023-04-18T05:38:56.657Z,6.55
2023-04-18T05:41:23.734Z,6.57
2023-04-18T05:44:02.290Z,6.65
2023-04-18T05:46:31.941Z,6.69
2023-04-18T05:48:59.108Z,6.73
2023-04-18T05:51:27.079Z,6.75
2023-04-18T05:53:54.556Z,6.79
2023-04-18T05:56:21.802Z,6.78
2023-04-18T05:58:51.619Z,6.86
2023-04-18T06:01:19.155Z,6.92
2023-04-18T06:03:46.784Z,6.96
2023-04-18T06:06:14.413Z,6.95
2023-04-18T06:08:42.182Z,6.97
2023-04-18T06:11:09.501Z,6.99
2023-04-18T06:13:37.721Z,7.03
2023-04-18T06:16:05.338Z,7.03
2023-04-18T06:18:32.904Z,7.15
2023-04-18T06:21:00.166Z,7.12
2023-04-18T06:23:27.464Z,7.14
2023-04-18T06:25:55.909Z,7.14
2023-04-18T06:28:23.690Z,7.28
2023-04-18T06:30:51.426Z,7.26
2023-04-18T06:33:18.679Z,7.22
2023-04-18T06:35:47.032Z,7.16
2023-04-18T06:38:14.582Z,7.20
2023-04-18T06:40:42.015Z,7.27
2023-04-18T06:43:09.576Z,7.12
2023-04-18T06:45:37.168Z,7.10
2023-04-18T06:48:04.810Z,7.05
2023-04-18T06:50:32.495Z,7.01
2023-04-18T06:52:59.407Z,6.91
2023-04-18T06:55:27.072Z,6.94
2023-04-18T06:57:54.698Z,6.99
2023-04-18T07:00:22.321Z,6.96
2023-04-18T07:02:49.732Z,6.95
2023-04-18T07:05:17.292Z,7.10
2023-04-18T07:07:44.907Z,7.24
2023-04-18T07:10:12.321Z,7.31
2023-04-18T07:12:39.694Z,7.35
2023-04-18T07:15:07.293Z,7.42
2023-04-18T07:17:34.700Z,7.46
2023-04-18T07:20:02.046Z,7.34
2023-04-18T07:22:29.460Z,7.58
2023-04-18T07:24:56.952Z,7.69
2023-04-18T07:27:24.094Z,7.70
2023-04-18T07:29:53.916Z,7.61
2023-04-18T07:32:21.332Z,7.81
2023-04-18T07:34:48.594Z,7.88
2023-04-18T07:37:17.845Z,8.09
2023-04-18T07:39:45.233Z,8.27
2023-04-18T07:42:12.836Z,8.60
2023-04-18T07:44:40.364Z,8.50
2023-04-18T07:47:11.934Z,8.37
2023-04-18T07:49:39.928Z,8.14
2023-04-18T07:52:07.845Z,7.92
2023-04-18T07:54:35.376Z,7.99
2023-04-18T07:57:02.977Z,8.00
2023-04-18T07:59:32.575Z,8.28
2023-04-18T08:01:59.933Z,8.76
2023-04-18T08:04:29.909Z,8.60
2023-04-18T08:06:57.898Z,8.97
2023-04-18T08:09:25.643Z,8.73
2023-04-18T08:11:55.223Z,9.23
2023-04-18T08:14:22.661Z,9.18
2023-04-18T08:16:49.983Z,9.13
2023-04-18T08:19:17.411Z,9.12
2023-04-18T08:21:45.162Z,9.36
2023-04-18T08:24:12.718Z,9.33
2023-04-18T08:26:40.100Z,10.04
2023-04-18T08:29:08.374Z,10.22
2023-04-18T08:31:35.758Z,9.57
2023-04-18T08:34:04.948Z,9.26
2023-04-18T08:36:32.187Z,9.22
2023-04-18T08:38:58.903Z,9.13
2023-04-18T08:41:26.464Z,9.67
2023-04-18T08:43:54.288Z,9.72
2023-04-18T08:46:22.920Z,10.00
2023-04-18T08:48:51.434Z,10.16
2023-04-18T08:51:18.769Z,10.04
2023-04-18T08:53:45.717Z,9.39
2023-04-18T08:56:14.779Z,9.85
2023-04-18T08:58:41.570Z,10.45
2023-04-18T09:01:08.928Z,10.76
2023-04-18T09:03:42.512Z,11.46
2023-04-18T09:06:19.415Z,10.93
2023-04-18T09:08:59.205Z,10.97
2023-04-18T09:11:29.137Z,11.29
2023-04-18T09:13:58.934Z,12.22
2023-04-18T09:16:27.883Z,12.49
2023-04-18T09:19:10.977Z,12.51
2023-04-18T09:21:44.529Z,12.70
2023-04-18T09:24:24.791Z,11.31
2023-04-18T09:26:54.233Z,10.75
2023-04-18T09:29:25.207Z,10.77
2023-04-18T09:32:02.618Z,10.45
2023-04-18T09:34:29.623Z,10.06
2023-04-18T09:37:15.229Z,9.76
2023-04-18T09:39:45.809Z,10.51
2023-04-18T09:42:14.338Z,11.79
2023-04-18T09:45:02.764Z,11.32
2023-04-18T09:47:31.287Z,10.69
2023-04-18T09:49:58.675Z,10.37
2023-04-18T09:52:26.517Z,9.97
2023-04-18T09:54:58.856Z,10.26
2023-04-18T09:57:29.046Z,10.47
2023-04-18T10:00:10.758Z,10.38
2023-04-18T10:02:52.838Z,11.07
2023-04-18T10:05:22.337Z,11.00
2023-04-18T10:07:51.308Z,10.99
2023-04-18T10:10:18.634Z,10.51
2023-04-18T10:12:48.342Z,10.82
2023-04-18T10:15:16.923Z,11.33
2023-04-18T10:18:02.824Z,11.45
2023-04-18T10:20:32.633Z,12.84
2023-04-18T10:23:00.792Z,12.58
2023-04-18T10:25:39.766Z,12.47
2023-04-18T10:28:08.306Z,11.45
2023-04-18T10:30:41.538Z,11.09
2023-04-18T10:33:33.875Z,10.81
2023-04-18T10:36:09.737Z,11.54
2023-04-18T10:38:45.643Z,12.17
2023-04-18T10:41:15.328Z,11.37
2023-04-18T10:44:10.607Z,11.28
2023-04-18T10:46:38.794Z,11.47
2023-04-18T10:49:34.232Z,11.81
2023-04-18T10:52:02.746Z,12.56
2023-04-18T10:54:37.404Z,13.68
2023-04-18T10:57:05.651Z,12.66
2023-04-18T10:59:34.476Z,11.44
2023-04-18T11:02:24.876Z,11.16
2023-04-18T11:04:57.282Z,10.69
2023-04-18T11:07:34.612Z,11.05
2023-04-18T11:10:02.457Z,10.45
2023-04-18T11:12:34.882Z,10.42
2023-04-18T11:15:10.929Z,10.79
2023-04-18T11:17:40.455Z,11.64
2023-04-18T11:20:11.263Z,11.82
2023-04-18T11:22:52.189Z,12.26
2023-04-18T11:25:26.394Z,12.20
2023-04-18T11:27:55.893Z,11.62
2023-04-18T11:30:23.440Z,11.33
2023-04-18T11:32:51.972Z,11.50
2023-04-18T11:35:20.067Z,11.82
2023-04-18T11:37:47.441Z,12.42
2023-04-18T11:40:14.841Z,11.70
2023-04-18T11:42:42.788Z,11.70
2023-04-18T11:45:14.726Z,11.97
2023-04-18T11:47:43.501Z,11.70
2023-04-18T11:50:14.125Z,12.75
2023-04-18T11:52:42.980Z,13.09
2023-04-18T11:55:17.897Z,12.92
2023-04-18T11:57:58.819Z,12.29
2023-04-18T12:00:35.422Z,11.71
2023-04-18T12:03:05.089Z,11.82
2023-04-18T12:05:34.887Z,11.43
2023-04-18T12:08:34.719Z,11.44
2023-04-18T12:11:02.148Z,11.36
2023-04-18T12:13:33.128Z,11.31
2023-04-18T12:16:02.626Z,11.48
2023-04-18T12:18:30.207Z,11.45
2023-04-18T12:20:58.891Z,11.71
2023-04-18T12:23:30.781Z,11.87
2023-04-18T12:26:07.573Z,13.46
2023-04-18T12:28:36.018Z,13.49
2023-04-18T12:31:07.178Z,14.42
2023-04-18T12:33:36.957Z,13.13
2023-04-18T12:36:05.644Z,12.60
2023-04-18T12:38:32.825Z,13.01
2023-04-18T12:41:00.237Z,13.23
2023-04-18T12:43:27.611Z,13.40
2023-04-18T12:45:54.872Z,13.13
2023-04-18T12:48:22.762Z,13.53
2023-04-18T12:50:50.083Z,13.41
2023-04-18T12:53:17.612Z,13.90
2023-04-18T12:55:44.998Z,14.25
2023-04-18T12:58:15.546Z,13.33
2023-04-18T13:00:43.011Z,13.02
2023-04-18T13:03:13.104Z,13.26
2023-04-18T13:05:41.391Z,13.72
2023-04-18T13:08:16.742Z,13.92
2023-04-18T13:10:46.498Z,13.51
2023-04-18T13:13:13.933Z,12.93
2023-04-18T13:15:41.644Z,12.59
2023-04-18T13:18:09.102Z,12.51
2023-04-18T13:20:36.996Z,12.72
2023-04-18T13:23:04.633Z,13.00
2023-04-18T13:25:32.235Z,13.22
2023-04-18T13:28:00.964Z,13.37
2023-04-18T13:30:28.498Z,13.39
2023-04-18T13:32:55.844Z,13.93
2023-04-18T13:35:23.290Z,14.30
2023-04-18T13:37:50.877Z,13.93
2023-04-18T13:40:17.746Z,13.29
2023-04-18T13:42:44.966Z,13.23
2023-04-18T13:45:12.346Z,12.70
2023-04-18T13:47:39.804Z,13.02
2023-04-18T13:50:08.366Z,12.69
2023-04-18T13:52:36.582Z,12.85
2023-04-18T13:55:04.504Z,12.76
2023-04-18T13:57:34.803Z,12.86
2023-04-18T14:00:02.415Z,13.22
2023-04-18T14:02:39.298Z,13.09
2023-04-18T14:05:07.822Z,13.17
2023-04-18T14:07:35.925Z,13.36
2023-04-18T14:10:03.337Z,13.43
2023-04-18T14:12:31.462Z,13.89
2023-04-18T14:14:58.912Z,14.01
2023-04-18T14:17:26.118Z,14.48
2023-04-18T14:19:53.876Z,14.34
2023-04-18T14:22:21.074Z,14.25
2023-04-18T14:24:52.575Z,13.71
2023-04-18T14:27:19.791Z,13.82
2023-04-18T14:29:47.968Z,13.72
2023-04-18T14:32:15.198Z,13.07
2023-04-18T14:34:43.050Z,13.36
2023-04-18T14:37:10.395Z,13.47
2023-04-18T14:39:38.341Z,13.74
2023-04-18T14:42:05.976Z,13.90
2023-04-18T14:44:34.153Z,14.15
2023-04-18T14:47:01.821Z,13.77
2023-04-18T14:49:29.158Z,13.79
2023-04-18T14:51:56.601Z,13.79
2023-04-18T14:54:24.126Z,13.66
2023-04-18T14:56:51.872Z,13.52
2023-04-18T14:59:20.975Z,13.38
2023-04-18T15:01:48.461Z,13.74
2023-04-18T15:04:16.264Z,13.63
2023-04-18T15:06:44.262Z,13.60
2023-04-18T15:09:12.224Z,13.59
2023-04-18T15:11:39.198Z,13.20
2023-04-18T15:14:07.667Z,13.48
2023-04-18T15:16:35.575Z,13.74
2023-04-18T15:19:03.064Z,13.69
2023-04-18T15:21:34.357Z,13.54
2023-04-18T15:24:01.994Z,13.33
2023-04-18T15:26:30.998Z,13.05
2023-04-18T15:29:03.630Z,13.19
2023-04-18T15:31:32.021Z,13.08
2023-04-18T15:33:59.433Z,12.91
2023-04-18T15:36:28.252Z,13.01
2023-04-18T15:38:55.118Z,13.22
2023-04-18T15:41:22.118Z,13.36
2023-04-18T15:43:48.852Z,13.42
2023-04-18T15:46:16.261Z,13.56
2023-04-18T15:48:44.545Z,13.76
2023-04-18T15:51:11.898Z,13.81
2023-04-18T15:53:39.301Z,13.80
2023-04-18T15:56:06.570Z,13.93
2023-04-18T15:58:33.743Z,13.59
2023-04-18T16:01:01.539Z,13.65
2023-04-18T16:03:29.153Z,13.79
2023-04-18T16:05:56.657Z,13.76
2023-04-18T16:08:24.247Z,13.77
2023-04-18T16:10:52.657Z,13.72
2023-04-18T16:13:20.091Z,13.80
2023-04-18T16:15:48.131Z,13.96
2023-04-18T16:18:15.039Z,13.90
2023-04-18T16:20:41.719Z,13.76
2023-04-18T16:23:08.671Z,13.53
2023-04-18T16:25:35.395Z,13.74
2023-04-18T16:28:02.390Z,13.67
2023-04-18T16:30:29.529Z,13.50
2023-04-18T16:32:56.638Z,13.34
2023-04-18T16:35:23.571Z,13.43
2023-04-18T16:37:50.527Z,13.37
2023-04-18T16:40:17.446Z,13.40
2023-04-18T16:42:44.252Z,13.32
2023-04-18T16:45:10.920Z,13.39
2023-04-18T16:47:37.735Z,13.46
2023-04-18T16:50:05.271Z,13.34
2023-04-18T16:52:32.515Z,13.35
2023-04-18T16:54:59.975Z,13.33
2023-04-18T16:57:27.220Z,13.31
2023-04-18T16:59:54.739Z,13.32
2023-04-18T17:02:22.233Z,13.41
2023-04-18T17:04:49.872Z,13.43
2023-04-18T17:07:17.315Z,13.44
2023-04-18T17:09:44.723Z,13.41
2023-04-18T17:12:11.664Z,13.36
2023-04-18T17:14:38.892Z,13.21
2023-04-18T17:17:06.545Z,13.12
2023-04-18T17:19:35.669Z,13.02
2023-04-18T17:22:03.314Z,13.06
2023-04-18T17:24:31.036Z,13.14
2023-04-18T17:26:58.681Z,13.18
2023-04-18T17:29:26.574Z,13.24
2023-04-18T17:31:54.267Z,13.24
2023-04-18T17:34:21.667Z,13.26
2023-04-18T17:36:49.221Z,13.25
2023-04-18T17:39:17.251Z,13.29
2023-04-18T17:41:45.390Z,13.23
2023-04-18T17:44:12.732Z,13.14
2023-04-18T17:46:40.129Z,13.04
2023-04-18T17:49:07.710Z,13.05
2023-04-18T17:51:38.151Z,13.00
2023-04-18T17:54:05.934Z,12.96
2023-04-18T17:56:33.369Z,12.95
2023-04-18T17:59:00.662Z,12.97
2023-04-18T18:01:30.603Z,12.96
2023-04-18T18:03:58.370Z,12.96
2023-04-18T18:06:28.843Z,12.90
2023-04-18T18:08:57.763Z,12.81
2023-04-18T18:11:25.022Z,12.64
2023-04-18T18:13:55.317Z,12.50
2023-04-18T18:16:24.150Z,12.50
2023-04-18T18:18:51.436Z,12.51
2023-04-18T18:21:19.425Z,12.48
2023-04-18T18:23:46.583Z,12.36
2023-04-18T18:26:13.911Z,12.29
2023-04-18T18:28:41.290Z,12.21
2023-04-18T18:31:09.799Z,12.11
2023-04-18T18:33:37.012Z,12.16
2023-04-18T18:36:04.666Z,12.08
2023-04-18T18:38:31.990Z,12.15
2023-04-18T18:41:00.553Z,12.12
2023-04-18T18:43:29.643Z,11.98
2023-04-18T18:45:56.799Z,12.02
2023-04-18T18:48:24.660Z,12.07
2023-04-18T18:50:52.025Z,11.91
2023-04-18T18:53:19.530Z,11.85
2023-04-18T18:55:46.486Z,11.89
2023-04-18T18:58:13.736Z,11.81
2023-04-18T19:00:41.037Z,11.76
2023-04-18T19:03:08.701Z,11.66
2023-04-18T19:05:37.059Z,11.59
2023-04-18T19:08:06.037Z,11.47
2023-04-18T19:10:33.299Z,11.36
2023-04-18T19:13:00.774Z,11.22
2023-04-18T19:15:28.506Z,11.22
2023-04-18T19:17:56.451Z,11.25
2023-04-18T19:20:24.041Z,11.18
2023-04-18T19:22:51.170Z,11.22
2023-04-18T19:25:18.691Z,11.22
2023-04-18T19:27:46.505Z,11.16
2023-04-18T19:30:14.105Z,11.12
2023-04-18T19:32:41.399Z,11.09
2023-04-18T19:35:12.010Z,11.15
2023-04-18T19:37:39.857Z,11.05
2023-04-18T19:40:07.636Z,10.95
2023-04-18T19:42:34.962Z,10.86
2023-04-18T19:45:02.126Z,10.79
2023-04-18T19:47:32.618Z,10.80
2023-04-18T19:50:01.241Z,10.87
2023-04-18T19:52:28.619Z,10.84
2023-04-18T19:54:56.317Z,10.78
2023-04-18T19:57:24.623Z,10.87
2023-04-18T19:59:52.114Z,10.91
2023-04-18T20:02:19.487Z,10.82
2023-04-18T20:04:47.134Z,10.75
2023-04-18T20:07:14.683Z,10.78
2023-04-18T20:09:42.024Z,10.70
2023-04-18T20:12:09.352Z,10.64
2023-04-18T20:14:36.561Z,10.45
2023-04-18T20:17:03.912Z,10.40
2023-04-18T20:19:32.705Z,10.44
2023-04-18T20:22:00.611Z,10.38
2023-04-18T20:24:28.448Z,10.29
2023-04-18T20:26:58.012Z,10.35
2023-04-18T20:29:25.765Z,10.23
2023-04-18T20:31:53.123Z,10.26
2023-04-18T20:34:20.930Z,10.34
2023-04-18T20:36:50.141Z,10.28
2023-04-18T20:39:17.654Z,10.31
2023-04-18T20:41:48.640Z,10.22
2023-04-18T20:44:17.341Z,10.24
2023-04-18T20:46:44.974Z,10.14
2023-04-18T20:49:12.146Z,10.07
2023-04-18T20:51:39.915Z,9.99
2023-04-18T20:54:07.532Z,10.01
2023-04-18T20:56:37.595Z,10.01
2023-04-18T20:59:05.418Z,9.99
2023-04-18T21:01:32.892Z,9.86
2023-04-18T21:04:00.314Z,9.75
2023-04-18T21:06:28.600Z,9.73
2023-04-18T21:08:56.264Z,9.75
2023-04-18T21:11:23.889Z,9.77
2023-04-18T21:13:51.131Z,9.90
2023-04-18T21:16:18.651Z,9.89
2023-04-18T21:18:45.840Z,9.69
2023-04-18T21:21:13.210Z,9.68
2023-04-18T21:23:44.820Z,9.71
2023-04-18T21:26:13.484Z,9.69
2023-04-18T21:28:59.879Z,9.66
2023-04-18T21:31:29.876Z,9.60
2023-04-18T21:33:58.408Z,9.56
2023-04-18T21:36:27.395Z,9.53
2023-04-18T21:38:56.432Z,9.59
2023-04-18T21:41:24.353Z,9.53
2023-04-18T21:43:52.535Z,9.57
2023-04-18T21:46:20.076Z,9.48
2023-04-18T21:48:48.202Z,9.54
2023-04-18T21:51:16.608Z,9.44
2023-04-18T21:53:44.068Z,9.35
2023-04-18T21:56:11.503Z,9.28
2023-04-18T21:58:38.770Z,9.44
2023-04-18T22:01:06.199Z,9.35
2023-04-18T22:03:34.354Z,9.21
2023-04-18T22:06:02.247Z,9.25
2023-04-18T22:08:29.793Z,9.21
2023-04-18T22:10:59.288Z,9.27
2023-04-18T22:13:30.361Z,9.10
2023-04-18T22:15:58.534Z,9.01
2023-04-18T22:18:26.003Z,8.94
2023-04-18T22:20:53.939Z,8.89
2023-04-18T22:23:21.444Z,8.89
2023-04-18T22:25:49.069Z,8.94
2023-04-18T22:28:16.542Z,9.02
2023-04-18T22:30:43.943Z,9.01
2023-04-18T22:33:11.318Z,9.05
2023-04-18T22:35:38.687Z,8.86
2023-04-18T22:38:06.471Z,8.84
2023-04-18T22:40:33.833Z,8.88
2023-04-18T22:43:00.999Z,8.79
2023-04-18T22:45:28.291Z,8.92
2023-04-18T22:47:55.807Z,8.84
2023-04-18T22:50:22.988Z,8.82
2023-04-18T22:52:51.209Z,8.76
2023-04-18T22:55:20.257Z,8.74
2023-04-18T22:57:47.631Z,8.73
2023-04-18T23:00:15.250Z,8.83
2023-04-18T23:02:42.396Z,8.78
2023-04-18T23:05:11.077Z,8.74
2023-04-18T23:07:38.196Z,8.79
2023-04-18T23:10:07.121Z,8.78
2023-04-18T23:12:34.295Z,8.85
2023-04-18T23:15:01.533Z,8.76
2023-04-18T23:17:29.122Z,8.60
2023-04-18T23:19:56.499Z,8.64
2023-04-18T23:22:24.518Z,8.62
2023-04-18T23:24:52.016Z,8.67
2023-04-18T23:27:19.799Z,8.72
2023-04-18T23:29:48.605Z,8.61
2023-04-18T23:32:16.106Z,8.65
2023-04-18T23:34:43.710Z,8.52
2023-04-18T23:37:10.903Z,8.57
2023-04-18T23:39:38.117Z,8.45
2023-04-18T23:42:05.458Z,8.41
2023-04-18T23:44:32.775Z,8.44
2023-04-18T23:47:00.325Z,8.43
2023-04-18T23:49:28.675Z,8.43
2023-04-18T23:51:56.138Z,8.42
2023-04-18T23:54:23.377Z,8.34
2023-04-18T23:56:50.976Z,8.32
2023-04-18T23:59:19.460Z,8.51
